Time;durP1;ratioP1;P1;durP2;ratioP2;P2;SDS_P1;SDS_P2;PMS_P1;PMS_P2;Temp;Humidity;BMP_temperature;BMP_pressure;BME280_temperature;BME280_humidity;BME280_pressure;Samples;Min_cycle;Max_cycle;Signal;HPM_P1;HPM_P2
2021/08/30 00:00:10;;;;;;;14.00;11.60;;;14.40;99.90;;;;;;5007604;28;20450;-67
2021/08/30 00:02:39;;;;;;;14.47;11.27;;;14.40;99.90;;;;;;5007868;28;20496;-66
2021/08/30 00:05:07;;;;;;;12.80;11.20;;;14.40;99.90;;;;;;5007828;28;20982;-67
2021/08/30 00:07:36;;;;;;;14.97;12.37;;;14.40;99.90;;;;;;5008638;28;20541;-67
2021/08/30 00:10:03;;;;;;;16.67;12.63;;;14.40;99.90;;;;;;5008493;28;20453;-67
2021/08/30 00:12:30;;;;;;;15.60;12.80;;;14.40;99.90;;;;;;5009005;28;20466;-67
2021/08/30 00:14:57;;;;;;;16.60;13.30;;;14.40;99.90;;;;;;5009772;28;20462;-67
2021/08/30 00:17:23;;;;;;;14.73;12.13;;;14.50;99.90;;;;;;5010617;28;20588;-67
2021/08/30 00:19:50;;;;;;;17.87;13.40;;;14.50;99.90;;;;;;5010370;28;20896;-68
2021/08/30 00:22:17;;;;;;;17.20;13.13;;;14.50;99.90;;;;;;5010139;28;20491;-66
2021/08/30 00:24:45;;;;;;;17.90;12.70;;;14.50;99.90;;;;;;5010764;28;20446;-67
2021/08/30 00:27:12;;;;;;;15.43;13.10;;;14.50;99.90;;;;;;5010697;28;20957;-67
2021/08/30 00:29:39;;;;;;;18.40;13.60;;;14.50;99.90;;;;;;5010633;28;20445;-68
2021/08/30 00:32:06;;;;;;;16.80;14.50;;;14.50;99.90;;;;;;5010273;28;21056;-67
2021/08/30 00:34:33;;;;;;;17.20;14.27;;;14.50;99.90;;;;;;5010760;28;20446;-67
2021/08/30 00:37:01;;;;;;;16.50;14.33;;;14.50;99.90;;;;;;5011010;28;20445;-67
2021/08/30 00:39:29;;;;;;;17.00;14.73;;;14.50;99.90;;;;;;5010814;28;20453;-68
2021/08/30 00:41:57;;;;;;;17.07;14.90;;;14.50;99.90;;;;;;5010039;28;20485;-67
2021/08/30 00:44:25;;;;;;;17.33;15.17;;;14.50;99.90;;;;;;5010799;28;20452;-67
2021/08/30 00:46:52;;;;;;;17.70;15.43;;;14.50;99.90;;;;;;5014513;28;20450;-67
2021/08/30 00:49:20;;;;;;;17.80;15.63;;;14.60;99.90;;;;;;5014514;28;20449;-67
2021/08/30 00:51:47;;;;;;;20.00;16.27;;;14.60;99.90;;;;;;5013977;28;20458;-67
2021/08/30 00:54:14;;;;;;;19.13;15.97;;;14.60;99.90;;;;;;5014567;28;20460;-67
2021/08/30 00:56:41;;;;;;;19.63;17.23;;;14.60;99.90;;;;;;5014451;28;20504;-67
2021/08/30 00:59:09;;;;;;;19.00;16.07;;;14.60;99.90;;;;;;5014016;28;20447;-67
2021/08/30 01:01:36;;;;;;;18.17;15.73;;;14.60;99.90;;;;;;5014156;28;20499;-67
2021/08/30 01:04:06;;;;;;;16.17;14.43;;;14.60;99.90;;;;;;5013928;28;20475;-67
2021/08/30 01:06:42;;;;;;;17.03;14.80;;;14.60;99.90;;;;;;5014042;28;20454;-67
2021/08/30 01:09:21;;;;;;;17.60;15.27;;;14.60;99.90;;;;;;5014007;28;20448;-67
2021/08/30 01:11:54;;;;;;;16.83;14.97;;;14.60;99.90;;;;;;5013523;28;20503;-67
2021/08/30 01:14:24;;;;;;;17.17;15.07;;;14.60;99.90;;;;;;5013951;28;20825;-67
2021/08/30 01:16:52;;;;;;;16.53;13.90;;;14.60;99.90;;;;;;5013807;28;20460;-67
2021/08/30 01:19:25;;;;;;;16.90;15.20;;;14.60;99.90;;;;;;5013716;28;20449;-67
2021/08/30 01:21:52;;;;;;;14.90;13.37;;;14.60;99.90;;;;;;5013251;28;20496;-67
2021/08/30 01:24:21;;;;;;;18.60;13.97;;;14.60;99.90;;;;;;5013644;28;20544;-68
2021/08/30 01:26:52;;;;;;;17.00;15.20;;;14.60;99.90;;;;;;5013498;28;20450;-67
2021/08/30 01:29:29;;;;;;;16.53;14.30;;;14.60;99.90;;;;;;5013567;28;20450;-67
2021/08/30 01:31:58;;;;;;;16.43;14.73;;;14.60;99.90;;;;;;5013126;28;20452;-67
2021/08/30 01:34:29;;;;;;;16.00;13.10;;;14.60;99.90;;;;;;5013522;28;20809;-67
2021/08/30 01:36:57;;;;;;;16.50;14.70;;;14.60;99.90;;;;;;5013413;28;20513;-68
2021/08/30 01:39:29;;;;;;;15.60;13.87;;;14.60;99.90;;;;;;5013488;28;20452;-67
2021/08/30 01:41:58;;;;;;;16.73;14.17;;;14.60;99.90;;;;;;5012855;28;20494;-67
2021/08/30 01:44:27;;;;;;;15.03;13.43;;;14.60;99.90;;;;;;5013277;28;20442;-67
2021/08/30 01:46:56;;;;;;;13.97;12.50;;;14.60;99.90;;;;;;5013271;28;20460;-67
2021/08/30 01:49:26;;;;;;;15.43;13.47;;;14.60;99.90;;;;;;5013224;28;20541;-67
2021/08/30 01:51:54;;;;;;;16.40;13.80;;;14.60;99.90;;;;;;5012798;28;21021;-67
2021/08/30 01:54:23;;;;;;;15.00;13.20;;;14.60;99.90;;;;;;5012993;28;20453;-68
2021/08/30 01:56:53;;;;;;;14.57;12.43;;;14.60;99.90;;;;;;5011685;28;20886;-67
2021/08/30 02:02:07;;;;;;;13.80;12.30;;;14.60;99.90;;;;;;5012646;28;20485;-67
2021/08/30 02:04:35;;;;;;;14.87;13.27;;;14.60;99.90;;;;;;5013052;28;20483;-67
2021/08/30 02:07:02;;;;;;;13.83;11.70;;;14.60;99.90;;;;;;5012706;28;20835;-67
2021/08/30 02:09:29;;;;;;;15.00;11.77;;;14.60;99.90;;;;;;5012803;28;20445;-67
2021/08/30 02:11:56;;;;;;;14.77;13.03;;;14.60;99.90;;;;;;5012423;28;20536;-67
2021/08/30 02:14:23;;;;;;;14.93;12.13;;;14.60;99.90;;;;;;5012438;28;20462;-69
2021/08/30 02:16:51;;;;;;;14.23;12.73;;;14.60;99.90;;;;;;5013103;28;20454;-67
2021/08/30 02:19:25;;;;;;;15.40;12.60;;;14.60;99.90;;;;;;5012672;28;20446;-67
2021/08/30 02:21:57;;;;;;;14.97;12.97;;;14.60;99.90;;;;;;5012491;28;20491;-67
2021/08/30 02:24:32;;;;;;;16.93;13.37;;;14.50;99.90;;;;;;5012682;28;20441;-67
2021/08/30 02:27:03;;;;;;;13.37;11.97;;;14.50;99.90;;;;;;5012490;28;20461;-67
2021/08/30 02:29:37;;;;;;;13.37;10.87;;;14.50;99.90;;;;;;5014792;28;20456;-67
2021/08/30 02:32:07;;;;;;;14.90;12.70;;;14.40;99.90;;;;;;5013978;28;20458;-67
2021/08/30 02:34:36;;;;;;;15.90;12.10;;;14.40;99.90;;;;;;5014292;28;20446;-67
2021/08/30 02:37:06;;;;;;;15.97;13.30;;;14.40;99.90;;;;;;5014038;28;20442;-67
2021/08/30 02:39:34;;;;;;;16.47;13.10;;;14.40;99.90;;;;;;5013001;28;20454;-65
2021/08/30 02:42:04;;;;;;;15.10;12.30;;;14.40;99.90;;;;;;5011855;28;20497;-65
2021/08/30 02:44:31;;;;;;;17.13;12.43;;;14.40;99.90;;;;;;5012291;28;20564;-67
2021/08/30 02:46:59;;;;;;;13.03;11.60;;;14.40;99.90;;;;;;5012040;28;20450;-68
2021/08/30 02:49:27;;;;;;;12.60;10.47;;;14.40;99.90;;;;;;5012153;28;20560;-67
2021/08/30 02:51:58;;;;;;;14.40;11.60;;;14.40;99.90;;;;;;5011833;28;20442;-67
2021/08/30 02:54:26;;;;;;;15.07;11.90;;;14.30;99.90;;;;;;5012415;28;20461;-67
2021/08/30 02:56:54;;;;;;;15.37;11.93;;;14.30;99.90;;;;;;5012004;28;21024;-67
2021/08/30 02:59:23;;;;;;;13.80;11.17;;;14.40;99.90;;;;;;5011805;28;20950;-67
2021/08/30 03:01:50;;;;;;;15.80;12.53;;;14.40;99.90;;;;;;5011405;28;20564;-68
2021/08/30 03:04:17;;;;;;;13.63;11.47;;;14.40;99.90;;;;;;5011979;28;20476;-67
2021/08/30 03:06:44;;;;;;;15.17;13.63;;;14.40;99.90;;;;;;5012098;28;20807;-67
2021/08/30 03:09:11;;;;;;;13.10;11.63;;;14.40;99.90;;;;;;5011867;28;20461;-67
2021/08/30 03:11:40;;;;;;;13.77;11.77;;;14.30;99.90;;;;;;5011554;28;20469;-67
2021/08/30 03:14:10;;;;;;;13.20;11.40;;;14.40;99.90;;;;;;5011658;28;20946;-67
2021/08/30 03:16:41;;;;;;;15.00;12.67;;;14.40;99.90;;;;;;5011722;28;20512;-67
2021/08/30 03:19:12;;;;;;;13.50;11.73;;;14.30;99.90;;;;;;5012025;28;20446;-67
2021/08/30 03:21:40;;;;;;;12.60;11.00;;;14.40;99.90;;;;;;5011178;28;20547;-67
2021/08/30 03:24:08;;;;;;;12.20;10.87;;;14.40;99.90;;;;;;5011398;28;20455;-67
2021/08/30 03:26:36;;;;;;;10.97;9.80;;;14.40;99.90;;;;;;5011371;28;20448;-67
2021/08/30 03:29:04;;;;;;;11.17;9.97;;;14.40;99.90;;;;;;5011227;28;21136;-67
2021/08/30 03:31:33;;;;;;;14.90;11.47;;;14.40;99.90;;;;;;5011411;28;21017;-67
2021/08/30 03:34:01;;;;;;;13.17;11.23;;;14.40;99.90;;;;;;5011164;28;21054;-67
2021/08/30 03:36:29;;;;;;;13.77;12.30;;;14.40;99.90;;;;;;5011336;28;20828;-67
2021/08/30 03:38:57;;;;;;;13.80;12.23;;;14.40;99.90;;;;;;5011021;28;20453;-67
2021/08/30 03:41:26;;;;;;;16.17;13.47;;;14.40;99.90;;;;;;5010591;28;20446;-67
2021/08/30 03:43:54;;;;;;;14.80;12.70;;;14.40;99.90;;;;;;5010812;28;20554;-67
2021/08/30 03:46:23;;;;;;;21.53;15.33;;;14.40;99.90;;;;;;5011492;28;20802;-67
2021/08/30 03:48:50;;;;;;;17.03;15.20;;;14.40;99.90;;;;;;5011197;28;20446;-67
2021/08/30 03:51:18;;;;;;;19.60;15.30;;;14.40;99.90;;;;;;5010981;28;20445;-67
2021/08/30 03:53:46;;;;;;;17.47;14.87;;;14.40;99.90;;;;;;5011068;28;20557;-67
2021/08/30 03:56:14;;;;;;;18.30;16.30;;;14.40;99.90;;;;;;5010683;28;20453;-67
2021/08/30 03:58:43;;;;;;;17.20;15.40;;;14.40;99.90;;;;;;5011190;28;20441;-67
2021/08/30 04:01:10;;;;;;;16.97;15.00;;;14.40;99.90;;;;;;5011031;28;20449;-67
2021/08/30 04:03:40;;;;;;;17.00;14.60;;;14.40;99.90;;;;;;5010450;28;20567;-67
2021/08/30 04:06:09;;;;;;;18.00;15.40;;;14.40;99.90;;;;;;5011024;28;20457;-67
2021/08/30 04:08:36;;;;;;;18.93;15.03;;;14.40;99.90;;;;;;5010510;28;20481;-67
2021/08/30 04:11:04;;;;;;;17.73;15.10;;;14.40;99.90;;;;;;5010498;28;20452;-67
2021/08/30 04:13:31;;;;;;;15.97;14.03;;;14.40;99.90;;;;;;5010329;28;20495;-67
2021/08/30 04:15:58;;;;;;;21.47;16.57;;;14.40;99.90;;;;;;5010367;28;20464;-67
2021/08/30 04:18:25;;;;;;;19.37;15.83;;;14.40;99.90;;;;;;5010481;28;20827;-67
2021/08/30 04:20:53;;;;;;;18.30;15.33;;;14.40;99.90;;;;;;5009793;28;20453;-67
2021/08/30 04:23:20;;;;;;;18.20;13.90;;;14.40;99.90;;;;;;5009659;28;20493;-67
2021/08/30 04:25:47;;;;;;;21.70;16.73;;;14.40;99.90;;;;;;5010462;28;20453;-67
2021/08/30 04:28:14;;;;;;;20.13;15.90;;;14.50;99.90;;;;;;5010425;28;20441;-67
2021/08/30 04:30:40;;;;;;;23.30;17.80;;;14.50;99.90;;;;;;5010300;28;20549;-67
2021/08/30 04:33:10;;;;;;;19.43;17.00;;;14.50;99.90;;;;;;5009761;28;21190;-67
2021/08/30 04:35:37;;;;;;;21.80;16.27;;;14.50;99.90;;;;;;5010564;28;20449;-67
2021/08/30 04:38:06;;;;;;;19.87;16.30;;;14.50;99.90;;;;;;5010378;28;20953;-67
2021/08/30 04:40:33;;;;;;;22.40;16.13;;;14.50;99.90;;;;;;5010721;28;20446;-68
2021/08/30 04:43:00;;;;;;;23.00;16.50;;;14.50;99.90;;;;;;5010171;28;20492;-67
2021/08/30 04:45:27;;;;;;;21.27;16.47;;;14.50;99.90;;;;;;5010348;28;20442;-68
2021/08/30 04:47:53;;;;;;;20.83;15.93;;;14.50;99.90;;;;;;5010561;28;20480;-68
2021/08/30 04:50:20;;;;;;;19.60;16.50;;;14.50;99.90;;;;;;5010208;28;20549;-67
2021/08/30 04:52:47;;;;;;;20.67;15.70;;;14.50;99.90;;;;;;5010038;28;20465;-68
2021/08/30 04:55:15;;;;;;;22.17;15.90;;;14.50;99.90;;;;;;5010517;28;20830;-67
2021/08/30 04:57:42;;;;;;;18.37;15.47;;;14.50;99.90;;;;;;5010657;28;20453;-67
2021/08/30 05:00:12;;;;;;;19.53;15.40;;;14.50;99.90;;;;;;5010279;28;21104;-68
2021/08/30 05:02:39;;;;;;;21.40;15.20;;;14.50;99.90;;;;;;5009799;28;20489;-68
2021/08/30 05:05:07;;;;;;;18.00;13.80;;;14.50;99.90;;;;;;5010231;28;20452;-68
2021/08/30 05:07:34;;;;;;;17.93;14.57;;;14.40;99.90;;;;;;5010015;28;20457;-68
2021/08/30 05:10:00;;;;;;;18.80;13.20;;;14.50;99.90;;;;;;5010318;28;20544;-68
2021/08/30 05:12:29;;;;;;;14.63;12.03;;;14.50;99.90;;;;;;5009918;28;20531;-68
2021/08/30 05:14:56;;;;;;;20.53;14.50;;;14.50;99.90;;;;;;5010197;28;20564;-67
2021/08/30 05:17:23;;;;;;;17.57;13.10;;;14.50;99.90;;;;;;5011151;28;20530;-67
2021/08/30 05:19:50;;;;;;;20.30;14.97;;;14.50;99.90;;;;;;5011083;28;20449;-67
2021/08/30 05:22:17;;;;;;;19.17;15.40;;;14.50;99.90;;;;;;5011480;28;20589;-67
2021/08/30 05:24:44;;;;;;;20.50;16.10;;;14.50;99.90;;;;;;5012057;28;20456;-67
2021/08/30 05:27:11;;;;;;;21.57;16.80;;;14.50;99.90;;;;;;5011321;28;20544;-67
2021/08/30 05:29:39;;;;;;;19.50;14.53;;;14.60;99.90;;;;;;5011364;28;20480;-68
2021/08/30 05:32:07;;;;;;;22.17;14.97;;;14.60;99.90;;;;;;5012437;28;20552;-68
2021/08/30 05:34:35;;;;;;;19.10;14.80;;;14.60;99.90;;;;;;5013775;28;20529;-68
2021/08/30 05:37:01;;;;;;;17.33;14.43;;;14.70;99.90;;;;;;5013717;28;20460;-68
2021/08/30 05:39:28;;;;;;;19.10;16.10;;;14.70;99.90;;;;;;5013835;28;20446;-68
2021/08/30 05:41:55;;;;;;;20.83;14.60;;;14.70;99.90;;;;;;5013179;28;20870;-68
2021/08/30 05:44:22;;;;;;;20.73;17.63;;;14.70;99.90;;;;;;5013482;28;20489;-68
2021/08/30 05:46:52;;;;;;;18.10;15.27;;;14.70;99.90;;;;;;5013260;28;20926;-67
2021/08/30 05:49:19;;;;;;;18.37;14.00;;;14.80;99.90;;;;;;5013772;28;20540;-67
2021/08/30 05:51:46;;;;;;;20.10;14.80;;;14.80;99.90;;;;;;5013134;28;20445;-68
2021/08/30 05:54:13;;;;;;;22.63;16.57;;;14.80;99.90;;;;;;5013600;28;20477;-68
2021/08/30 05:56:40;;;;;;;19.53;15.53;;;14.80;99.90;;;;;;5013365;28;20454;-68
2021/08/30 05:59:07;;;;;;;20.43;15.97;;;14.80;99.90;;;;;;5013037;28;20449;-68
2021/08/30 06:01:36;;;;;;;17.87;15.20;;;14.80;99.90;;;;;;5012808;28;20472;-68
2021/08/30 06:04:04;;;;;;;17.83;14.13;;;14.90;99.90;;;;;;5013015;28;20489;-67
2021/08/30 06:06:31;;;;;;;18.60;15.00;;;15.00;99.90;;;;;;5013087;28;20449;-68
2021/08/30 06:08:58;;;;;;;16.53;14.13;;;15.00;99.90;;;;;;5012686;28;20545;-68
2021/08/30 06:11:25;;;;;;;15.90;13.90;;;15.00;99.90;;;;;;5012224;28;20456;-68
2021/08/30 06:13:52;;;;;;;16.33;14.27;;;15.00;99.90;;;;;;5012147;28;20461;-68
2021/08/30 06:16:19;;;;;;;16.93;13.70;;;15.10;99.90;;;;;;5012598;28;20457;-68
2021/08/30 06:18:46;;;;;;;18.37;15.00;;;15.10;99.90;;;;;;5012476;28;20536;-68
2021/08/30 06:21:14;;;;;;;15.00;12.93;;;15.20;99.90;;;;;;5012213;28;21010;-67
2021/08/30 06:23:41;;;;;;;16.20;13.73;;;15.40;99.90;;;;;;5012179;28;20492;-68
2021/08/30 06:26:08;;;;;;;14.33;12.83;;;15.40;99.90;;;;;;5012230;28;20825;-67
2021/08/30 06:28:35;;;;;;;16.43;13.07;;;15.60;99.90;;;;;;5012140;28;20456;-68
2021/08/30 06:31:02;;;;;;;13.37;12.03;;;15.70;99.90;;;;;;5012257;28;20453;-68
2021/08/30 06:33:29;;;;;;;15.00;13.50;;;15.80;99.90;;;;;;5011839;28;20841;-68
2021/08/30 06:35:55;;;;;;;13.07;11.50;;;15.90;99.90;;;;;;5011911;28;20826;-68
2021/08/30 06:38:24;;;;;;;16.53;13.90;;;15.90;99.90;;;;;;5012197;28;21181;-68
2021/08/30 06:40:50;;;;;;;13.57;12.17;;;16.00;99.90;;;;;;5011843;28;20489;-68
2021/08/30 06:43:18;;;;;;;14.50;12.40;;;16.00;99.90;;;;;;5010967;28;20496;-68
2021/08/30 06:45:44;;;;;;;15.83;14.13;;;16.00;99.90;;;;;;5011822;28;20960;-68
2021/08/30 06:48:11;;;;;;;12.63;11.33;;;16.00;99.90;;;;;;5011829;28;20450;-68
2021/08/30 06:50:38;;;;;;;13.70;11.57;;;16.00;99.90;;;;;;5011632;28;20445;-68
2021/08/30 06:53:05;;;;;;;13.30;12.00;;;16.00;99.90;;;;;;5011289;28;20472;-68
2021/08/30 06:55:33;;;;;;;14.17;11.43;;;16.00;99.90;;;;;;5011641;28;20454;-67
2021/08/30 06:58:00;;;;;;;12.83;11.53;;;16.00;99.90;;;;;;5011848;28;20538;-67
2021/08/30 07:00:27;;;;;;;14.70;12.47;;;16.10;99.90;;;;;;5011705;28;20450;-67
2021/08/30 07:02:54;;;;;;;13.37;11.37;;;16.10;99.90;;;;;;5011201;28;20843;-67
2021/08/30 07:05:21;;;;;;;13.17;11.87;;;16.10;99.90;;;;;;5011433;28;20445;-67
2021/08/30 07:07:48;;;;;;;13.93;12.60;;;16.10;99.90;;;;;;5011579;28;20537;-67
2021/08/30 07:10:16;;;;;;;13.40;11.50;;;16.10;99.90;;;;;;5011675;28;20572;-70
2021/08/30 07:12:44;;;;;;;14.37;12.87;;;16.10;99.90;;;;;;5011034;28;20556;-69
2021/08/30 07:15:11;;;;;;;15.37;12.37;;;16.10;99.90;;;;;;5011057;28;20457;-69
2021/08/30 07:17:38;;;;;;;12.63;11.27;;;16.10;99.90;;;;;;5011216;28;20938;-69
2021/08/30 07:20:06;;;;;;;16.83;11.60;;;16.20;99.90;;;;;;5011046;28;20446;-67
2021/08/30 07:22:33;;;;;;;13.43;11.70;;;16.20;99.90;;;;;;5010617;28;21017;-66
2021/08/30 07:25:00;;;;;;;13.30;11.90;;;16.20;99.90;;;;;;5011089;28;21021;-68
2021/08/30 07:27:27;;;;;;;15.37;11.40;;;16.00;99.90;;;;;;5011008;28;20446;-66
2021/08/30 07:29:55;;;;;;;14.30;12.80;;;15.90;99.90;;;;;;5011204;28;20545;-66
2021/08/30 07:32:22;;;;;;;12.67;11.37;;;15.90;99.90;;;;;;5010702;28;20517;-67
2021/08/30 07:34:49;;;;;;;14.20;12.10;;;15.90;99.90;;;;;;5010933;28;20521;-67
2021/08/30 07:37:16;;;;;;;12.70;11.50;;;16.00;99.90;;;;;;5010836;28;20543;-67
2021/08/30 07:39:43;;;;;;;13.00;11.67;;;16.10;99.90;;;;;;5010830;28;20457;-66
2021/08/30 07:42:10;;;;;;;12.00;10.77;;;16.10;99.90;;;;;;5010560;28;20462;-66
2021/08/30 07:44:37;;;;;;;12.83;11.53;;;16.20;99.90;;;;;;5010818;28;20500;-67
2021/08/30 07:47:06;;;;;;;12.23;10.70;;;16.10;99.90;;;;;;5010899;28;20532;-66
2021/08/30 07:49:33;;;;;;;13.70;11.63;;;16.00;99.90;;;;;;5010547;28;20456;-67
2021/08/30 07:52:00;;;;;;;11.80;10.70;;;16.00;99.90;;;;;;5010625;28;20450;-67
2021/08/30 07:54:27;;;;;;;13.00;11.17;;;16.00;99.90;;;;;;5009904;28;20835;-65
2021/08/30 07:56:54;;;;;;;11.73;10.50;;;15.90;99.90;;;;;;5010716;28;20998;-66
2021/08/30 07:59:20;;;;;;;13.10;11.73;;;15.90;99.90;;;;;;5010680;28;20934;-66
2021/08/30 08:01:47;;;;;;;14.10;12.60;;;15.80;99.90;;;;;;5009639;28;20455;-68
2021/08/30 08:04:15;;;;;;;13.57;12.17;;;15.80;99.90;;;;;;5010382;28;20219;-66
2021/08/30 08:06:42;;;;;;;14.33;12.93;;;15.80;99.90;;;;;;5011047;28;20537;-66
2021/08/30 08:09:09;;;;;;;14.50;13.00;;;15.80;99.90;;;;;;5007683;28;20446;-66
2021/08/30 08:11:36;;;;;;;13.20;11.80;;;15.90;99.90;;;;;;5010290;28;20532;-66
2021/08/30 08:14:03;;;;;;;13.40;12.00;;;15.90;99.90;;;;;;5010522;28;20483;-67
2021/08/30 08:16:30;;;;;;;15.10;11.17;;;15.90;99.90;;;;;;5010331;28;21069;-66
2021/08/30 08:18:57;;;;;;;11.13;9.97;;;15.90;99.90;;;;;;5007169;28;20461;-66
2021/08/30 08:21:25;;;;;;;11.70;10.60;;;15.80;99.90;;;;;;5010415;28;20537;-67
2021/08/30 08:23:53;;;;;;;12.07;10.87;;;15.80;99.90;;;;;;5010412;28;20494;-67
2021/08/30 08:26:20;;;;;;;10.57;9.47;;;15.80;99.90;;;;;;5010544;28;20458;-67
2021/08/30 08:28:47;;;;;;;10.63;9.53;;;15.80;99.90;;;;;;5010553;28;20458;-67
2021/08/30 08:31:14;;;;;;;10.93;9.83;;;15.90;99.90;;;;;;5010363;28;20838;-67
2021/08/30 08:33:41;;;;;;;10.43;9.23;;;15.80;99.90;;;;;;5010704;28;20882;-67
2021/08/30 08:36:08;;;;;;;8.80;7.90;;;15.70;99.90;;;;;;5010566;28;20858;-67
2021/08/30 08:38:37;;;;;;;10.80;8.57;;;15.60;99.90;;;;;;5010511;28;20446;-67
2021/08/30 08:41:04;;;;;;;9.63;8.20;;;15.50;99.90;;;;;;5010831;28;20452;-68
2021/08/30 08:43:32;;;;;;;9.40;8.40;;;15.50;99.90;;;;;;5009989;28;20568;-67
2021/08/30 08:45:59;;;;;;;8.93;8.00;;;15.40;99.90;;;;;;5010152;28;20945;-66
2021/08/30 08:48:26;;;;;;;10.40;9.17;;;15.50;99.90;;;;;;5010085;28;20485;-66
2021/08/30 08:50:53;;;;;;;9.37;8.37;;;15.70;99.90;;;;;;5010380;28;20537;-66
2021/08/30 08:53:20;;;;;;;11.30;10.10;;;15.90;99.90;;;;;;5009986;28;20623;-67
2021/08/30 08:55:49;;;;;;;9.90;8.53;;;16.10;99.90;;;;;;5010265;28;20453;-66
2021/08/30 08:58:17;;;;;;;11.60;8.20;;;16.40;99.90;;;;;;5010085;28;20454;-66
2021/08/30 09:00:45;;;;;;;11.67;8.87;;;16.80;99.90;;;;;;5009788;28;20454;-66
2021/08/30 09:03:16;;;;;;;9.00;8.10;;;17.00;99.90;;;;;;5009547;28;20581;-66
2021/08/30 09:05:43;;;;;;;10.50;9.50;;;17.30;99.90;;;;;;5010809;28;20548;-66
2021/08/30 09:08:27;;;;;;;9.33;8.43;;;17.60;99.90;;;;;;5013838;28;20452;-66
2021/08/30 09:10:56;;;;;;;10.10;9.10;;;17.70;99.90;;;;;;5013592;28;20449;-66
2021/08/30 09:13:27;;;;;;;8.53;7.73;;;17.80;99.90;;;;;;5013866;28;20476;-66
2021/08/30 09:15:55;;;;;;;11.80;10.70;;;17.80;99.90;;;;;;5014354;28;20453;-66
2021/08/30 09:18:28;;;;;;;11.70;10.07;;;17.80;99.90;;;;;;5015456;28;20534;-67
2021/08/30 09:20:55;;;;;;;9.90;8.63;;;17.60;99.90;;;;;;5016127;28;20511;-67
2021/08/30 09:23:23;;;;;;;10.33;9.30;;;17.40;99.90;;;;;;5014829;28;20505;-67
2021/08/30 09:26:01;;;;;;;10.60;9.50;;;17.30;99.90;;;;;;5014988;28;20454;-67
2021/08/30 09:28:33;;;;;;;10.67;9.53;;;17.20;99.90;;;;;;5013761;28;20445;-68
2021/08/30 09:31:00;;;;;;;10.33;9.33;;;17.20;99.90;;;;;;5013536;28;20449;-67
2021/08/30 09:33:27;;;;;;;11.83;10.07;;;17.30;99.90;;;;;;5013131;28;20477;-67
2021/08/30 09:35:58;;;;;;;14.50;11.40;;;17.20;99.90;;;;;;5013396;28;20451;-67
2021/08/30 09:38:25;;;;;;;13.30;10.53;;;16.90;99.90;;;;;;5014025;28;20533;-67
2021/08/30 09:40:52;;;;;;;13.00;11.27;;;16.60;99.90;;;;;;5013584;28;20548;-67
2021/08/30 09:43:21;;;;;;;12.47;11.17;;;16.30;99.90;;;;;;5013336;28;20561;-67
2021/08/30 09:45:49;;;;;;;12.10;10.80;;;16.20;99.90;;;;;;5013431;28;20825;-67
2021/08/30 09:48:25;;;;;;;14.30;12.43;;;16.00;99.90;;;;;;5013442;28;20532;-67
2021/08/30 09:50:52;;;;;;;12.73;11.20;;;16.00;99.90;;;;;;5014397;28;20481;-67
2021/08/30 09:53:19;;;;;;;15.07;13.53;;;15.90;99.90;;;;;;5013436;28;20536;-68
2021/08/30 09:55:47;;;;;;;24.53;14.43;;;16.00;99.90;;;;;;5013653;28;20972;-67
2021/08/30 09:58:17;;;;;;;16.30;14.07;;;16.10;99.90;;;;;;5014018;28;20553;-67
2021/08/30 10:00:47;;;;;;;15.23;12.30;;;16.20;99.90;;;;;;5013281;28;20449;-67
2021/08/30 10:03:16;;;;;;;14.67;12.00;;;16.40;99.90;;;;;;5012916;28;20508;-67
2021/08/30 10:05:43;;;;;;;13.00;10.97;;;16.60;99.90;;;;;;5013184;28;20496;-67
2021/08/30 10:08:11;;;;;;;12.83;11.63;;;16.70;99.90;;;;;;5013419;28;20838;-67
2021/08/30 10:10:37;;;;;;;12.40;10.87;;;16.80;99.90;;;;;;5013001;28;20450;-67
2021/08/30 10:13:06;;;;;;;13.13;11.73;;;16.80;99.90;;;;;;5012425;28;20832;-67
2021/08/30 10:15:34;;;;;;;17.57;15.93;;;16.80;99.90;;;;;;5012787;28;20477;-68
2021/08/30 10:18:02;;;;;;;14.80;11.87;;;16.80;99.90;;;;;;5012217;28;20533;-67
2021/08/30 10:20:34;;;;;;;11.23;10.00;;;16.60;99.90;;;;;;5004189;28;20453;-66
2021/08/30 10:23:04;;;;;;;13.57;11.60;;;16.40;99.90;;;;;;5001256;28;20469;-66
2021/08/30 10:25:30;;;;;;;17.97;15.20;;;16.20;99.90;;;;;;5006960;28;20857;-67
2021/08/30 10:28:00;;;;;;;18.43;14.90;;;16.00;99.90;;;;;;4997949;28;20455;-68
2021/08/30 10:30:28;;;;;;;17.50;15.00;;;16.00;99.90;;;;;;4993093;28;20890;-68
2021/08/30 10:32:57;;;;;;;17.60;15.73;;;15.90;99.90;;;;;;4992671;28;20466;-68
2021/08/30 10:35:29;;;;;;;16.10;14.07;;;16.00;99.90;;;;;;4992865;28;20450;-68
2021/08/30 10:38:00;;;;;;;15.00;13.40;;;16.10;99.90;;;;;;4992884;28;20959;-68
2021/08/30 10:40:29;;;;;;;15.77;14.07;;;16.20;99.90;;;;;;5001918;28;20480;-66
2021/08/30 10:43:09;;;;;;;14.73;13.20;;;16.30;99.90;;;;;;5011614;28;20865;-65
2021/08/30 10:45:41;;;;;;;15.20;12.20;;;16.50;99.90;;;;;;5022167;28;20964;-65
2021/08/30 10:48:11;;;;;;;15.63;12.40;;;16.50;99.90;;;;;;5030591;28;20819;-64
2021/08/30 10:50:42;;;;;;;15.20;13.50;;;16.40;99.90;;;;;;5030639;28;20500;-68
2021/08/30 10:53:15;;;;;;;14.53;13.13;;;16.30;99.90;;;;;;5022157;28;20475;-67
2021/08/30 10:55:44;;;;;;;16.23;13.73;;;16.40;99.90;;;;;;5025630;28;20445;-67
2021/08/30 10:58:19;;;;;;;13.70;12.30;;;16.50;99.90;;;;;;5030219;28;20483;-69
2021/08/30 11:00:49;;;;;;;14.10;12.70;;;16.60;99.90;;;;;;5030413;28;20442;-72
2021/08/30 11:03:28;;;;;;;11.60;10.33;;;16.80;99.90;;;;;;5030123;28;20467;-67
2021/08/30 11:06:09;;;;;;;10.47;9.47;;;17.00;99.90;;;;;;5029906;28;20532;-66
2021/08/30 11:08:38;;;;;;;11.03;9.90;;;17.10;99.90;;;;;;5030346;28;20991;-67
2021/08/30 11:11:09;;;;;;;10.50;9.37;;;17.20;99.90;;;;;;5030206;28;21208;-67
2021/08/30 11:13:36;;;;;;;9.90;8.90;;;17.30;99.90;;;;;;5029714;28;20979;-67
2021/08/30 11:16:04;;;;;;;9.80;8.90;;;17.50;99.90;;;;;;5029935;28;20480;-67
2021/08/30 11:18:31;;;;;;;10.03;8.60;;;17.70;99.90;;;;;;5030267;28;20457;-68
2021/08/30 11:20:57;;;;;;;10.23;9.23;;;17.90;99.90;;;;;;5030013;28;20460;-68
2021/08/30 11:23:29;;;;;;;10.47;8.90;;;18.10;99.90;;;;;;5029762;28;20556;-67
2021/08/30 11:26:04;;;;;;;8.83;8.03;;;18.20;99.90;;;;;;5029770;28;20480;-68
2021/08/30 11:28:31;;;;;;;9.63;8.63;;;18.50;99.90;;;;;;5029474;28;20964;-67
2021/08/30 11:30:58;;;;;;;10.77;9.70;;;18.60;99.90;;;;;;5029743;28;20507;-67
2021/08/30 11:33:26;;;;;;;11.50;8.57;;;18.60;99.90;;;;;;5029448;28;20465;-67
2021/08/30 11:35:59;;;;;;;11.53;9.23;;;18.50;99.90;;;;;;5029860;28;20821;-66
2021/08/30 11:38:25;;;;;;;11.30;10.20;;;18.30;99.90;;;;;;5029554;28;20967;-67
2021/08/30 11:40:54;;;;;;;13.50;10.23;;;18.00;99.90;;;;;;5029416;28;20560;-66
2021/08/30 11:43:21;;;;;;;11.70;9.50;;;18.00;99.90;;;;;;5029234;28;20556;-66
2021/08/30 11:45:47;;;;;;;12.07;10.20;;;17.90;99.90;;;;;;5029500;28;20488;-66
2021/08/30 11:48:16;;;;;;;14.20;10.30;;;17.70;99.90;;;;;;5029203;28;20449;-66
2021/08/30 11:50:44;;;;;;;12.37;11.07;;;17.30;99.90;;;;;;5029464;28;20484;-66
2021/08/30 11:53:12;;;;;;;12.80;11.50;;;17.10;99.90;;;;;;5028930;28;20480;-66
2021/08/30 11:55:39;;;;;;;18.67;12.83;;;16.90;99.90;;;;;;5029102;28;20452;-66
2021/08/30 11:58:09;;;;;;;14.60;13.10;;;16.80;99.90;;;;;;5029147;28;20449;-66
2021/08/30 12:00:36;;;;;;;14.80;13.20;;;16.70;99.90;;;;;;5029411;28;20544;-66
2021/08/30 12:03:14;;;;;;;18.03;14.30;;;16.70;99.90;;;;;;5028950;28;20568;-66
2021/08/30 12:05:44;;;;;;;19.20;13.90;;;16.60;99.90;;;;;;5028934;28;20473;-66
2021/08/30 12:08:11;;;;;;;14.27;12.27;;;16.50;99.90;;;;;;5029044;28;20460;-66
2021/08/30 12:10:38;;;;;;;13.80;11.93;;;16.40;99.90;;;;;;5029120;28;20453;-66
2021/08/30 12:15:52;;;;;;;16.00;13.37;;;16.50;99.90;;;;;;5028807;28;20571;-66
2021/08/30 12:18:19;;;;;;;14.30;12.80;;;16.50;99.90;;;;;;5028962;28;20872;-66
2021/08/30 12:20:47;;;;;;;14.67;11.60;;;16.50;99.90;;;;;;5028906;28;21158;-66
2021/08/30 12:23:19;;;;;;;12.83;11.50;;;16.30;99.90;;;;;;5028542;28;20473;-66
2021/08/30 12:25:48;;;;;;;14.53;12.97;;;16.20;99.90;;;;;;5028963;28;20510;-66
2021/08/30 12:28:17;;;;;;;12.03;10.70;;;16.10;99.90;;;;;;5028809;28;20820;-66
2021/08/30 12:30:45;;;;;;;15.73;14.03;;;16.10;99.90;;;;;;5028787;28;20453;-66
2021/08/30 12:33:16;;;;;;;17.50;13.80;;;16.10;99.90;;;;;;5028271;28;20632;-66
2021/08/30 12:35:45;;;;;;;18.80;14.13;;;16.10;99.90;;;;;;5028974;28;20445;-66
2021/08/30 12:38:14;;;;;;;15.73;13.97;;;16.20;99.90;;;;;;5014034;28;20458;-66